Time;durP1;ratioP1;P1;durP2;ratioP2;P2;SDS_P1;SDS_P2;PMS_P1;PMS_P2;Temp;Humidity;BMP_temperature;BMP_pressure;BME280_temperature;BME280_humidity;BME280_pressure;Samples;Min_cycle;Max_cycle;Signal;HPM_P1;HPM_P2
2023/12/30 00:00:05;;;;;;;2.00;1.73;;;;;;;9.06;100.00;95506.75;7403947;19;20445;-93
2023/12/30 00:02:48;;;;;;;4.27;1.53;;;;;;;9.28;100.00;95532.00;7402271;19;20419;-94
2023/12/30 00:05:29;;;;;;;2.13;1.63;;;;;;;9.29;100.00;95535.38;7403450;19;20869;-94
2023/12/30 00:08:10;;;;;;;1.83;1.70;;;;;;;9.03;100.00;95491.63;7401683;19;20460;-94
2023/12/30 00:10:51;;;;;;;2.10;1.73;;;;;;;8.63;100.00;95425.59;7404324;19;20384;-93
2023/12/30 00:13:32;;;;;;;3.17;1.60;;;;;;;8.95;100.00;95464.41;7400829;19;20390;-94
2023/12/30 00:16:13;;;;;;;1.47;1.37;;;;;;;9.23;100.00;95524.28;7403891;19;20368;-94
2023/12/30 00:18:55;;;;;;;2.73;1.97;;;;;;;9.12;100.00;95502.88;7403748;19;20385;-93
2023/12/30 00:21:36;;;;;;;2.80;1.30;;;;;;;8.83;100.00;95456.38;7402801;19;20364;-94
2023/12/30 00:24:17;;;;;;;1.97;1.77;;;;;;;8.99;100.00;95474.25;7401575;19;20412;-94
2023/12/30 00:26:58;;;;;;;1.43;1.33;;;;;;;9.01;100.00;95483.31;7402814;19;20383;-94
2023/12/30 00:29:40;;;;;;;1.70;1.57;;;;;;;8.72;100.00;95438.69;7402129;19;20681;-93
2023/12/30 00:32:21;;;;;;;2.57;1.80;;;;;;;9.12;100.00;95502.88;7401454;19;20490;-93
2023/12/30 00:35:02;;;;;;;2.57;2.37;;;;;;;9.12;100.00;95513.34;7402772;19;20885;-93
2023/12/30 00:37:43;;;;;;;2.10;1.90;;;;;;;8.59;100.00;95433.28;7402719;19;20393;-93
2023/12/30 00:40:24;;;;;;;2.10;1.33;;;;;;;8.99;100.00;95477.63;7402291;19;20383;-94
2023/12/30 00:43:06;;;;;;;2.33;1.87;;;;;;;9.39;100.00;95538.47;7400340;19;20734;-94
2023/12/30 00:45:48;;;;;;;2.43;1.40;;;;;;;9.17;100.00;95515.84;7402444;19;20380;-93
2023/12/30 00:48:30;;;;;;;1.90;1.60;;;;;;;9.40;100.00;95562.78;7401347;19;20365;-93
2023/12/30 00:51:11;;;;;;;3.63;1.93;;;;;;;9.81;100.00;95605.00;7402463;19;20377;-92
2023/12/30 00:53:52;;;;;;;2.33;1.30;;;;;;;8.89;100.00;95473.47;7402707;19;20406;-93
2023/12/30 00:56:34;;;;;;;4.23;1.80;;;;;;;9.08;100.00;95522.91;7402788;19;20387;-94
2023/12/30 00:59:16;;;;;;;1.33;1.23;;;;;;;9.88;100.00;95645.72;7402047;19;20418;-94
2023/12/30 01:01:57;;;;;;;2.03;1.80;;;;;;;9.23;100.00;95543.41;7400981;19;20442;-93
2023/12/30 01:04:38;;;;;;;3.70;1.90;;;;;;;9.22;100.00;95552.31;7402646;19;20444;-94
2023/12/30 01:07:19;;;;;;;4.40;1.33;;;;;;;9.21;100.00;95558.66;7401051;19;20388;-94
2023/12/30 01:10:01;;;;;;;1.77;1.57;;;;;;;9.03;100.00;95535.34;7401680;19;20376;-93
2023/12/30 01:12:42;;;;;;;1.70;1.50;;;;;;;9.12;100.00;95546.63;7400065;19;20412;-93
2023/12/30 01:15:23;;;;;;;2.40;2.00;;;;;;;9.54;100.00;95610.56;7401166;19;20380;-93
2023/12/30 01:18:04;;;;;;;3.30;2.13;;;;;;;9.09;100.00;95537.53;7400736;19;20390;-93
2023/12/30 01:20:46;;;;;;;1.73;1.10;;;;;;;8.88;100.00;95513.78;7403603;19;20368;-93
2023/12/30 01:23:27;;;;;;;1.20;1.10;;;;;;;9.19;100.00;95557.41;7399041;19;20745;-93
2023/12/30 01:26:08;;;;;;;1.60;1.50;;;;;;;9.20;100.00;95572.81;7401636;19;20421;-94
2023/12/30 01:28:49;;;;;;;2.93;1.73;;;;;;;9.51;100.00;95622.44;7399245;19;20384;-94
2023/12/30 01:31:30;;;;;;;2.00;1.80;;;;;;;8.50;100.00;95466.50;7400102;19;20380;-93
2023/12/30 01:34:11;;;;;;;4.20;1.90;;;;;;;9.09;100.00;95553.25;7400359;19;20418;-94
2023/12/30 01:36:54;;;;;;;1.37;1.17;;;;;;;8.57;100.00;95481.75;7402020;19;20380;-94
2023/12/30 01:39:35;;;;;;;2.30;1.40;;;;;;;9.23;100.00;95590.53;7400305;19;20380;-93
2023/12/30 01:42:17;;;;;;;4.30;2.20;;;;;;;8.45;100.00;95464.03;7397376;19;20431;-94
2023/12/30 01:44:58;;;;;;;4.60;1.40;;;;;;;8.75;100.00;95519.16;7400534;19;20695;-94
2023/12/30 01:47:39;;;;;;;1.63;1.00;;;;;;;8.39;100.00;95467.88;7399325;19;20389;-93
2023/12/30 01:50:22;;;;;;;2.87;1.90;;;;;;;8.84;100.00;95536.41;7401262;19;20397;-94
2023/12/30 01:53:04;;;;;;;1.37;1.20;;;;;;;8.50;100.00;95486.63;7399008;19;20408;-93
2023/12/30 01:55:50;;;;;;;2.40;1.30;;;;;;;8.50;100.00;95495.25;7399512;19;20455;-93
2023/12/30 01:58:31;;;;;;;2.33;1.40;;;;;;;8.74;100.00;95517.63;7401329;19;20733;-93
2023/12/30 02:01:15;;;;;;;1.47;1.20;;;;;;;9.25;100.00;95609.31;7400224;19;20381;-94
2023/12/30 02:03:56;;;;;;;1.33;1.23;;;;;;;8.52;100.00;95494.97;7399605;19;20714;-94
2023/12/30 02:06:39;;;;;;;1.40;1.30;;;;;;;9.17;100.00;95583.09;7399161;19;20368;-93
2023/12/30 02:09:20;;;;;;;2.90;1.37;;;;;;;8.60;100.00;95494.22;7399904;19;20373;-93
2023/12/30 02:12:03;;;;;;;1.67;1.30;;;;;;;8.45;100.00;95474.50;7398748;19;20415;-93
2023/12/30 02:14:44;;;;;;;1.70;1.53;;;;;;;9.15;100.00;95572.94;7399130;19;20384;-94
2023/12/30 02:17:25;;;;;;;2.20;1.13;;;;;;;9.08;100.00;95549.09;7399269;19;20396;-93
2023/12/30 02:20:07;;;;;;;1.37;1.20;;;;;;;8.71;100.00;95490.22;7398760;19;20385;-92
2023/12/30 02:22:49;;;;;;;2.40;1.43;;;;;;;9.07;100.00;95555.41;7398116;19;20428;-93
2023/12/30 02:25:30;;;;;;;2.93;1.50;;;;;;;8.39;100.00;95448.81;7399155;19;20854;-93
2023/12/30 02:28:11;;;;;;;1.60;1.50;;;;;;;9.12;100.00;95551.84;7397737;19;20387;-93
2023/12/30 02:30:52;;;;;;;1.80;1.70;;;;;;;9.05;100.00;95541.84;7399027;19;20401;-93
2023/12/30 02:33:37;;;;;;;2.50;1.50;;;;;;;8.99;100.00;95550.91;7397566;19;20369;-93
2023/12/30 02:36:18;;;;;;;1.50;1.13;;;;;;;9.30;100.00;95582.19;7398688;19;20466;-94
2023/12/30 02:38:59;;;;;;;1.70;1.40;;;;;;;9.05;100.00;95554.94;7399179;19;20384;-93
2023/12/30 02:41:40;;;;;;;4.40;1.73;;;;;;;9.50;100.00;95607.03;7398092;19;20400;-94
2023/12/30 02:44:22;;;;;;;1.70;1.60;;;;;;;9.50;100.00;95615.66;7398910;19;20387;-93
2023/12/30 02:47:03;;;;;;;3.67;1.20;;;;;;;9.16;100.00;95565.84;7398435;19;20372;-93
2023/12/30 02:49:45;;;;;;;2.77;1.63;;;;;;;9.76;100.00;95657.59;7397872;19;20889;-93
2023/12/30 02:52:26;;;;;;;1.73;1.53;;;;;;;9.02;100.00;95563.38;7396819;19;20412;-94
2023/12/30 02:55:07;;;;;;;2.37;1.40;;;;;;;9.05;100.00;95573.25;7397892;19;20400;-94
2023/12/30 02:57:48;;;;;;;2.27;1.60;;;;;;;9.36;100.00;95622.13;7397798;19;20401;-94
2023/12/30 03:00:29;;;;;;;3.23;1.93;;;;;;;9.28;100.00;95613.16;7398088;19;20687;-92
2023/12/30 03:03:11;;;;;;;1.60;1.40;;;;;;;8.21;100.00;95463.66;7397048;19;20380;-94
2023/12/30 03:05:52;;;;;;;3.57;2.07;;;;;;;8.61;100.00;95512.22;7398111;19;20772;-93
2023/12/30 03:08:33;;;;;;;2.20;1.57;;;;;;;9.11;100.00;95592.19;7395898;19;20460;-93
2023/12/30 03:11:16;;;;;;;1.80;1.67;;;;;;;9.36;100.00;95635.97;7397915;19;20385;-94
2023/12/30 03:13:57;;;;;;;1.30;1.20;;;;;;;8.52;100.00;95508.81;7397160;19;20448;-93
2023/12/30 03:16:38;;;;;;;2.30;1.43;;;;;;;8.76;100.00;95533.78;7397175;19;20385;-94
2023/12/30 03:19:19;;;;;;;2.40;1.53;;;;;;;8.53;100.00;95515.59;7397370;19;20842;-93
2023/12/30 03:22:02;;;;;;;4.57;1.47;;;;;;;9.21;100.00;95605.00;7396763;19;20447;-92
2023/12/30 03:24:43;;;;;;;1.60;1.30;;;;;;;8.98;100.00;95575.53;7395767;19;20397;-94
2023/12/30 03:27:24;;;;;;;1.90;1.70;;;;;;;8.76;100.00;95550.25;7396146;19;20407;-94
2023/12/30 03:30:06;;;;;;;1.97;1.47;;;;;;;9.45;100.00;95649.88;7397244;19;20400;-94
2023/12/30 03:32:47;;;;;;;1.93;1.73;;;;;;;8.71;100.00;95544.41;7395618;19;20912;-94
2023/12/30 03:35:29;;;;;;;1.70;1.60;;;;;;;8.30;100.00;95473.06;7397253;19;20464;-93
2023/12/30 03:38:10;;;;;;;5.90;2.13;;;;;;;8.98;100.00;95583.41;7396908;19;20697;-93
2023/12/30 03:40:51;;;;;;;1.57;1.47;;;;;;;8.98;100.00;95572.94;7397520;19;20376;-93
2023/12/30 03:43:34;;;;;;;4.10;1.93;;;;;;;8.47;100.00;95501.09;7395410;19;20369;-94
2023/12/30 03:46:15;;;;;;;1.70;1.60;;;;;;;8.88;100.00;95567.97;7396759;19;20396;-93
2023/12/30 03:48:56;;;;;;;7.20;1.97;;;;;;;8.61;100.00;95525.28;7422217;19;20412;-93
2023/12/30 03:51:37;;;;;;;1.87;1.43;;;;;;;9.07;100.00;95599.13;7425979;19;20396;-93
2023/12/30 03:54:18;;;;;;;2.37;1.70;;;;;;;8.24;100.00;95481.34;7426728;19;20376;-94
2023/12/30 03:57:00;;;;;;;1.33;1.23;;;;;;;8.28;100.00;95487.53;7420144;19;20416;-93
2023/12/30 03:59:41;;;;;;;2.70;1.20;;;;;;;9.17;100.00;95623.19;7396732;19;20701;-93
2023/12/30 04:02:22;;;;;;;1.80;1.40;;;;;;;8.86;100.00;95573.50;7396038;19;20931;-93
2023/12/30 04:05:04;;;;;;;5.23;1.93;;;;;;;9.21;100.00;95626.72;7400739;19;20401;-94
2023/12/30 04:07:45;;;;;;;4.63;1.50;;;;;;;8.99;100.00;95584.94;7402034;19;20436;-93
2023/12/30 04:10:27;;;;;;;3.77;1.40;;;;;;;9.26;100.00;95641.50;7403332;19;20387;-93
2023/12/30 04:13:09;;;;;;;2.37;1.50;;;;;;;9.21;100.00;95644.28;7401848;19;20420;-93
2023/12/30 04:15:50;;;;;;;4.83;1.77;;;;;;;8.93;100.00;95605.25;7403623;19;20383;-94
2023/12/30 04:18:31;;;;;;;2.10;1.83;;;;;;;9.07;100.00;95617.44;7403338;19;20389;-93
2023/12/30 04:21:13;;;;;;;3.30;1.53;;;;;;;9.14;100.00;95628.22;7403559;19;20764;-94
2023/12/30 04:23:54;;;;;;;2.47;1.50;;;;;;;9.05;100.00;95627.47;7401571;19;20412;-94
2023/12/30 04:26:35;;;;;;;1.87;1.43;;;;;;;9.54;100.00;95689.16;7403128;19;20368;-94
2023/12/30 04:29:16;;;;;;;3.33;1.67;;;;;;;8.85;100.00;95590.28;7404106;19;20722;-93
2023/12/30 04:31:57;;;;;;;3.60;1.50;;;;;;;9.17;100.00;95636.25;7402589;19;20405;-94
2023/12/30 04:34:38;;;;;;;2.00;1.80;;;;;;;9.07;100.00;95627.91;7403372;19;20404;-94
2023/12/30 04:37:20;;;;;;;1.93;1.20;;;;;;;8.82;100.00;95590.13;7403208;19;20376;-93
2023/12/30 04:40:01;;;;;;;2.13;1.77;;;;;;;8.52;100.00;95527.13;7404756;19;20369;-93
2023/12/30 04:42:42;;;;;;;4.53;2.13;;;;;;;9.13;100.00;95643.16;7401198;19;20736;-93
2023/12/30 04:45:23;;;;;;;2.90;1.67;;;;;;;8.26;100.00;95502.75;7402364;19;20643;-94
2023/12/30 04:48:08;;;;;;;2.03;1.73;;;;;;;8.65;100.00;95556.84;7401003;19;20444;-94
2023/12/30 04:50:49;;;;;;;3.90;2.47;;;;;;;8.73;100.00;95576.25;7402368;19;20365;-93
2023/12/30 04:53:31;;;;;;;3.17;1.77;;;;;;;8.64;100.00;95561.31;7399548;19;20407;-94
2023/12/30 04:56:16;;;;;;;3.10;1.70;;;;;;;8.45;100.00;95547.69;7402598;19;20380;-93
2023/12/30 04:58:58;;;;;;;1.60;1.50;;;;;;;9.62;100.00;95721.69;7401687;19;20395;-94
2023/12/30 05:01:39;;;;;;;1.87;1.40;;;;;;;9.03;100.00;95645.28;7401970;19;20435;-93
2023/12/30 05:04:20;;;;;;;2.60;1.53;;;;;;;8.92;100.00;95629.88;7401741;19;20394;-93
2023/12/30 05:07:02;;;;;;;2.00;1.73;;;;;;;9.38;100.00;95707.16;7401555;19;20389;-93
2023/12/30 05:09:43;;;;;;;2.30;1.57;;;;;;;8.40;100.00;95570.59;7402603;19;20469;-93
2023/12/30 05:12:24;;;;;;;2.33;1.77;;;;;;;8.82;100.00;95624.91;7400339;19;20417;-94
2023/12/30 05:15:06;;;;;;;1.70;1.60;;;;;;;8.42;100.00;95566.63;7400455;19;20381;-94
2023/12/30 05:17:47;;;;;;;2.10;1.67;;;;;;;8.91;100.00;95635.41;7401054;19;20368;-93
2023/12/30 05:20:28;;;;;;;1.73;1.53;;;;;;;9.42;100.00;95718.56;7401404;19;20468;-93
2023/12/30 05:23:09;;;;;;;2.90;2.27;;;;;;;9.14;100.00;95680.59;7398971;19;20424;-94
2023/12/30 05:25:50;;;;;;;2.20;2.00;;;;;;;9.35;100.00;95713.00;7400804;19;20870;-94
2023/12/30 05:28:32;;;;;;;1.70;1.60;;;;;;;9.54;100.00;95734.44;7400704;19;20368;-94
2023/12/30 05:31:13;;;;;;;4.03;1.20;;;;;;;9.12;100.00;95667.81;7401059;19;20865;-94
2023/12/30 05:33:54;;;;;;;1.67;1.37;;;;;;;8.80;100.00;95637.53;7401095;19;20384;-92
2023/12/30 05:36:38;;;;;;;2.20;2.00;;;;;;;8.69;100.00;95606.72;7400845;19;20730;-93
2023/12/30 05:39:19;;;;;;;1.87;1.43;;;;;;;8.86;100.00;95638.16;7401210;19;20418;-94
2023/12/30 05:42:01;;;;;;;3.43;1.80;;;;;;;8.42;100.00;95582.31;7400241;19;20419;-94
2023/12/30 05:44:42;;;;;;;2.37;2.03;;;;;;;8.22;100.00;95533.16;7400522;19;20365;-94
2023/12/30 05:47:23;;;;;;;1.77;1.33;;;;;;;8.40;100.00;95560.91;7399965;19;20393;-94
2023/12/30 05:50:05;;;;;;;2.03;1.63;;;;;;;8.85;100.00;95631.38;7401248;19;20388;-94
2023/12/30 05:52:48;;;;;;;1.63;1.50;;;;;;;8.56;100.00;95598.66;7399146;19;20420;-93
2023/12/30 05:55:29;;;;;;;1.90;1.40;;;;;;;8.91;100.00;95661.59;7399944;19;20872;-94
2023/12/30 05:58:10;;;;;;;2.00;1.83;;;;;;;8.74;100.00;95635.34;7400059;19;20380;-93
2023/12/30 06:00:52;;;;;;;2.60;1.37;;;;;;;9.03;100.00;95668.84;7403574;19;20394;-94
2023/12/30 06:03:35;;;;;;;7.20;2.10;;;;;;;9.06;100.00;95676.88;7397758;19;20417;-94
2023/12/30 06:06:16;;;;;;;1.93;1.47;;;;;;;8.35;100.00;95574.88;7399920;19;20400;-94
2023/12/30 06:08:57;;;;;;;4.07;1.97;;;;;;;8.30;100.00;95564.56;7397844;19;20401;-94
2023/12/30 06:11:39;;;;;;;2.60;1.40;;;;;;;8.98;100.00;95667.16;7399258;19;20400;-94
2023/12/30 06:14:20;;;;;;;1.10;0.97;;;;;;;8.41;100.00;95574.75;7400126;19;20392;-92
2023/12/30 06:17:01;;;;;;;1.97;1.70;;;;;;;8.60;100.00;95610.06;7399138;19;20384;-94
2023/12/30 06:19:43;;;;;;;2.03;1.67;;;;;;;9.22;100.00;95706.03;7401796;19;20385;-93
2023/12/30 06:22:24;;;;;;;2.00;1.37;;;;;;;8.25;100.00;95566.56;7402733;19;20412;-95
2023/12/30 06:25:06;;;;;;;3.53;1.97;;;;;;;8.60;100.00;95624.97;7401169;19;20373;-95
2023/12/30 06:27:47;;;;;;;1.70;1.60;;;;;;;8.79;100.00;95650.94;7397955;19;20396;-94
2023/12/30 06:30:28;;;;;;;1.70;1.40;;;;;;;8.45;100.00;95607.06;7400980;19;20365;-95
2023/12/30 06:33:09;;;;;;;2.53;1.40;;;;;;;8.77;100.00;95653.03;7399001;19;20428;-94
2023/12/30 06:35:50;;;;;;;1.77;1.60;;;;;;;8.84;100.00;95658.63;7402774;19;20377;-95
2023/12/30 06:38:32;;;;;;;1.83;1.20;;;;;;;8.25;100.00;95580.38;7400953;19;20779;-93
2023/12/30 06:41:13;;;;;;;4.60;2.23;;;;;;;9.07;100.00;95715.06;7400385;19;20377;-94
2023/12/30 06:43:54;;;;;;;6.00;2.87;;;;;;;8.92;100.00;95689.31;7400904;19;20384;-95
2023/12/30 06:46:35;;;;;;;3.20;1.60;;;;;;;8.38;100.00;95604.91;7399575;19;20372;-93
2023/12/30 06:49:17;;;;;;;1.87;1.70;;;;;;;8.55;100.00;95641.59;7399260;19;20373;-94
2023/12/30 06:51:58;;;;;;;1.60;1.47;;;;;;;8.53;100.00;95643.75;7398343;19;20918;-95
2023/12/30 06:54:40;;;;;;;3.10;2.00;;;;;;;8.46;100.00;95632.91;7398791;19;20375;-95
2023/12/30 06:57:24;;;;;;;3.00;2.10;;;;;;;8.88;100.00;95694.34;7399211;19;20396;-95
2023/12/30 07:00:07;;;;;;;2.90;1.83;;;;;;;8.12;100.00;95586.47;7398972;19;20396;-95
2023/12/30 07:02:48;;;;;;;3.83;1.90;;;;;;;8.58;100.00;95646.22;7398864;19;20393;-95
2023/12/30 07:05:35;;;;;;;3.10;1.67;;;;;;;8.92;100.00;95692.69;7398071;19;20364;-95
2023/12/30 07:08:17;;;;;;;2.60;1.93;;;;;;;9.11;100.00;95728.31;7396750;19;20403;-95
2023/12/30 07:10:58;;;;;;;2.70;2.10;;;;;;;8.21;100.00;95591.72;7399106;19;20395;-96
2023/12/30 07:13:39;;;;;;;3.03;1.90;;;;;;;9.04;100.00;95722.72;7398434;19;20373;-95
2023/12/30 07:16:20;;;;;;;8.03;1.30;;;;;;;8.85;100.00;95694.19;7398468;19;20381;-94
2023/12/30 07:19:02;;;;;;;5.23;4.70;;;;;;;8.61;100.00;95668.38;7399282;19;20403;-94
2023/12/30 07:21:43;;;;;;;1.90;1.80;;;;;;;8.46;100.00;95647.84;7399654;19;20677;-94
2023/12/30 07:24:24;;;;;;;3.93;1.83;;;;;;;9.16;100.00;95756.97;7397325;19;20412;-95
2023/12/30 07:27:05;;;;;;;1.43;1.33;;;;;;;8.22;100.00;95617.56;7398045;19;20401;-94
2023/12/30 07:29:47;;;;;;;4.40;2.27;;;;;;;7.88;100.00;95560.66;7399208;19;20392;-95
2023/12/30 07:32:29;;;;;;;5.57;3.10;;;;;;;8.40;100.00;95641.22;7397698;19;20476;-95
2023/12/30 07:35:10;;;;;;;4.57;1.00;;;;;;;8.33;100.00;95639.78;7398792;19;20360;-94
2023/12/30 07:37:51;;;;;;;1.97;1.20;;;;;;;8.58;100.00;95674.97;7398729;19;20394;-95
2023/12/30 07:40:32;;;;;;;2.30;1.30;;;;;;;8.53;100.00;95656.81;7404521;19;20680;-95
2023/12/30 07:43:13;;;;;;;4.07;1.90;;;;;;;8.41;100.00;95645.38;7403395;19;20734;-94
2023/12/30 07:45:55;;;;;;;3.23;1.20;;;;;;;9.60;100.00;95813.69;7405764;19;20380;-94
2023/12/30 07:48:36;;;;;;;1.87;1.20;;;;;;;8.79;100.00;95690.16;7403611;19;20452;-95
2023/12/30 07:51:17;;;;;;;4.07;1.80;;;;;;;8.99;100.00;95721.03;7406494;19;20384;-94
2023/12/30 07:53:59;;;;;;;1.63;1.53;;;;;;;9.68;100.00;95823.41;7405996;19;20665;-96
2023/12/30 07:56:40;;;;;;;7.10;1.70;;;;;;;9.55;100.00;95808.56;7405585;19;20384;-94
2023/12/30 07:59:21;;;;;;;4.10;1.53;;;;;;;9.22;100.00;95759.16;7404330;19;20363;-95
2023/12/30 08:02:03;;;;;;;4.53;1.90;;;;;;;9.29;100.00;95776.28;7402727;19;20419;-95
2023/12/30 08:04:44;;;;;;;2.70;1.47;;;;;;;8.93;100.00;95719.63;7403664;19;20391;-94
2023/12/30 08:07:25;;;;;;;5.60;1.43;;;;;;;8.49;100.00;95676.00;7404469;19;20372;-95
2023/12/30 08:10:07;;;;;;;2.20;1.60;;;;;;;8.89;100.00;95724.69;7403667;19;20380;-94
2023/12/30 08:12:48;;;;;;;2.50;1.43;;;;;;;9.59;100.00;95845.44;7402255;19;20433;-94
2023/12/30 08:15:30;;;;;;;6.30;3.23;;;;;;;8.36;100.00;95659.31;7403830;19;20384;-95
2023/12/30 08:18:11;;;;;;;3.00;1.83;;;;;;;9.11;100.00;95750.03;7403916;19;20388;-94
2023/12/30 08:20:54;;;;;;;2.20;1.47;;;;;;;8.70;100.00;95687.50;7403162;19;20390;-94
2023/12/30 08:23:35;;;;;;;3.73;1.30;;;;;;;8.94;100.00;95723.78;7400751;19;20501;-95
2023/12/30 08:26:16;;;;;;;1.90;1.20;;;;;;;9.47;100.00;95809.34;7402978;19;20382;-95
2023/12/30 08:28:57;;;;;;;2.00;1.50;;;;;;;9.42;100.00;95802.38;7400860;19;20392;-94
2023/12/30 08:31:45;;;;;;;3.07;1.70;;;;;;;9.22;100.00;95767.03;7402568;19;20897;-94
2023/12/30 08:34:27;;;;;;;3.67;2.20;;;;;;;8.39;100.00;95643.06;7403389;19;20369;-94
2023/12/30 08:37:09;;;;;;;2.10;1.80;;;;;;;9.48;100.00;95800.41;7403547;19;20391;-94
2023/12/30 08:39:50;;;;;;;3.03;2.57;;;;;;;9.24;100.00;95764.88;7403080;19;20376;-95
2023/12/30 08:42:34;;;;;;;2.30;1.70;;;;;;;8.94;100.00;95719.31;7401033;19;20476;-94
2023/12/30 08:45:18;;;;;;;2.40;1.50;;;;;;;9.07;100.00;95743.88;7402669;19;20420;-96
2023/12/30 08:47:59;;;;;;;3.00;1.80;;;;;;;8.94;100.00;95735.03;7402481;19;20397;-94
2023/12/30 08:50:41;;;;;;;2.10;1.70;;;;;;;9.01;100.00;95749.53;7401703;19;20384;-94
2023/12/30 08:53:24;;;;;;;6.03;1.50;;;;;;;9.29;100.00;95805.09;7400706;19;20377;-94
2023/12/30 08:56:06;;;;;;;2.40;1.97;;;;;;;8.88;100.00;95745.91;7404214;19;20389;-95
2023/12/30 08:58:47;;;;;;;3.87;2.00;;;;;;;7.86;100.00;95606.44;7405686;19;20377;-95
2023/12/30 09:01:29;;;;;;;2.23;1.60;;;;;;;8.54;100.00;95710.66;7402668;19;20382;-94
2023/12/30 09:04:10;;;;;;;3.53;2.00;;;;;;;8.38;100.00;95685.97;7403265;19;20357;-95
2023/12/30 09:06:52;;;;;;;3.90;3.27;;;;;;;8.76;100.00;95730.75;7403623;19;20384;-94
2023/12/30 09:09:34;;;;;;;3.70;1.97;;;;;;;8.92;100.00;95755.50;7403401;19;20373;-94
2023/12/30 09:12:16;;;;;;;1.43;1.30;;;;;;;9.10;100.00;95782.53;7403345;19;20396;-95
2023/12/30 09:14:57;;;;;;;14.50;6.70;;;;;;;8.73;100.00;95738.44;7404400;19;20396;-94
2023/12/30 09:17:39;;;;;;;5.50;2.53;;;;;;;8.95;100.00;95767.97;7402902;19;20876;-95
2023/12/30 09:20:20;;;;;;;3.53;2.13;;;;;;;9.45;100.00;95843.69;7403397;19;20361;-94
2023/12/30 09:23:01;;;;;;;3.70;1.80;;;;;;;8.83;100.00;95764.38;7400434;19;20725;-94
2023/12/30 09:25:42;;;;;;;4.33;1.33;;;;;;;8.92;100.00;95767.81;7401679;19;20381;-94
2023/12/30 09:28:23;;;;;;;7.63;6.10;;;;;;;8.65;100.00;95727.66;7403030;19;20392;-95
2023/12/30 09:31:04;;;;;;;1.77;1.50;;;;;;;9.72;100.00;95908.22;7403511;19;20403;-94
2023/12/30 09:33:48;;;;;;;4.87;2.10;;;;;;;9.72;100.00;95908.22;7402398;19;20352;-94
2023/12/30 09:36:30;;;;;;;7.97;2.10;;;;;;;9.49;100.00;95868.19;7403115;19;20361;-94
2023/12/30 09:39:11;;;;;;;2.93;2.33;;;;;;;9.39;100.00;95844.88;7401912;19;20379;-95
2023/12/30 09:41:52;;;;;;;3.13;1.37;;;;;;;8.85;100.00;95764.84;7401809;19;20372;-95
2023/12/30 09:44:34;;;;;;;3.03;1.97;;;;;;;9.02;100.00;95795.56;7402675;19;20372;-95
2023/12/30 09:47:17;;;;;;;1.27;1.17;;;;;;;9.23;100.00;95805.22;7402146;19;20365;-95
2023/12/30 09:49:59;;;;;;;3.70;1.70;;;;;;;9.60;100.00;95857.47;7401077;19;20391;-95
2023/12/30 09:52:40;;;;;;;5.40;2.30;;;;;;;8.61;100.00;95713.59;7402019;19;20396;-95
2023/12/30 09:55:21;;;;;;;2.30;2.10;;;;;;;9.34;100.00;95804.97;7402359;19;20436;-94
2023/12/30 09:58:05;;;;;;;3.53;1.70;;;;;;;8.90;100.00;95744.53;7403008;19;20389;-93
2023/12/30 10:00:47;;;;;;;2.10;2.00;;;;;;;9.07;100.00;95769.28;7402336;19;20384;-94
2023/12/30 10:03:28;;;;;;;4.57;1.67;;;;;;;9.31;100.00;95811.59;7398768;19;20353;-93
2023/12/30 10:06:12;;;;;;;2.60;1.77;;;;;;;9.66;100.00;95853.63;7401718;19;20361;-94
2023/12/30 10:08:54;;;;;;;9.57;1.93;;;;;;;10.04;100.00;95901.09;7400416;19;20404;-94
2023/12/30 10:11:36;;;;;;;3.60;3.30;;;;;;;8.82;100.00;95713.88;7401464;19;20396;-94
2023/12/30 10:14:17;;;;;;;4.93;4.17;;;;;;;9.42;100.00;95817.31;7402237;19;20369;-93
2023/12/30 10:17:02;;;;;;;1.90;1.50;;;;;;;9.07;100.00;95745.72;7400154;19;20716;-94
2023/12/30 10:19:45;;;;;;;2.10;1.87;;;;;;;9.55;100.00;95824.28;7403538;19;20380;-95
2023/12/30 10:22:27;;;;;;;7.80;1.30;;;;;;;8.85;100.00;95715.88;7400711;19;20404;-92
2023/12/30 10:25:08;;;;;;;5.10;2.23;;;;;;;9.21;100.00;95756.84;7400822;19;20384;-94
2023/12/30 10:27:50;;;;;;;10.40;7.97;;;;;;;9.05;100.00;95726.91;7401386;19;20373;-94
2023/12/30 10:30:32;;;;;;;3.03;2.30;;;;;;;10.21;100.00;95909.00;7400811;19;20687;-95
2023/12/30 10:33:14;;;;;;;5.53;4.80;;;;;;;9.93;100.00;95857.88;7401446;19;20408;-94
2023/12/30 10:35:56;;;;;;;2.07;1.87;;;;;;;9.50;100.00;95782.53;7423934;19;20381;-93
2023/12/30 10:38:40;;;;;;;3.33;2.20;;;;;;;9.20;100.00;95742.22;7424738;19;20379;-93
2023/12/30 10:41:21;;;;;;;3.37;1.80;;;;;;;9.60;100.00;95789.34;7428035;19;20420;-90
2023/12/30 10:44:02;;;;;;;1.93;1.53;;;;;;;9.09;100.00;95726.00;7411479;19;20415;-95
2023/12/30 10:46:48;;;;;;;4.30;1.90;;;;;;;9.05;100.00;95708.59;7403531;19;20393;-93
2023/12/30 10:49:31;;;;;;;4.30;1.50;;;;;;;9.88;100.00;95832.59;7400091;19;20401;-94
2023/12/30 10:52:14;;;;;;;3.10;1.30;;;;;;;9.04;100.00;95710.44;7400390;19;20396;-92
2023/12/30 10:55:08;;;;;;;2.50;1.50;;;;;;;10.22;100.00;95868.59;7398886;19;20698;-94
2023/12/30 10:58:01;;;;;;;4.73;1.50;;;;;;;9.14;100.00;95727.72;7399954;19;20384;-94
2023/12/30 11:00:43;;;;;;;3.97;1.60;;;;;;;9.96;100.00;95854.63;7412093;19;20380;-95
2023/12/30 11:03:25;;;;;;;7.10;4.30;;;;;;;9.53;100.00;95785.31;7397278;19;20411;-94
2023/12/30 11:06:12;;;;;;;2.77;1.37;;;;;;;10.40;100.00;95904.31;7399430;19;20485;-95
2023/12/30 11:08:58;;;;;;;3.77;1.90;;;;;;;9.29;100.00;95760.56;7396348;19;20387;-95
2023/12/30 11:11:55;;;;;;;7.97;2.27;;;;;;;9.68;100.00;95818.19;7397261;19;20411;-93
2023/12/30 11:14:36;;;;;;;5.90;4.83;;;;;;;9.88;100.00;95865.88;7397584;19;20373;-92
2023/12/30 11:17:34;;;;;;;4.03;2.60;;;;;;;9.56;100.00;95812.75;7398764;19;20376;-92
2023/12/30 11:20:28;;;;;;;4.53;2.57;;;;;;;10.16;100.00;95926.75;7397475;19;20861;-91
2023/12/30 11:23:10;;;;;;;4.73;4.13;;;;;;;7.95;100.00;95728.22;7395256;19;20419;-92
2023/12/30 11:25:51;;;;;;;2.23;2.00;;;;;;;8.56;100.00;95870.69;7396958;19;20381;-91
2023/12/30 11:28:37;;;;;;;16.60;13.40;;;;;;;8.68;100.00;95883.25;7396093;19;20381;-92
2023/12/30 11:31:29;;;;;;;73.77;56.70;;;;;;;8.11;100.00;95794.00;7397098;19;20899;-94
2023/12/30 11:34:11;;;;;;;8.33;7.53;;;;;;;8.05;100.00;95813.47;7397423;19;20380;-92
2023/12/30 11:36:53;;;;;;;12.97;12.07;;;;;;;7.75;100.00;95822.72;7397804;19;20770;-95
2023/12/30 11:39:38;;;;;;;10.87;10.20;;;;;;;7.70;100.00;95812.34;7398344;19;20365;-94
2023/12/30 11:42:20;;;;;;;10.73;9.93;;;;;;;7.55;100.00;95797.75;7396664;19;20782;-92
2023/12/30 11:45:02;;;;;;;6.53;6.07;;;;;;;7.91;100.00;95821.31;7397745;19;20385;-92
2023/12/30 11:47:47;;;;;;;1.50;1.20;;;;;;;8.33;100.00;95845.53;7396114;19;20369;-92
2023/12/30 11:50:28;;;;;;;1.20;1.00;;;;;;;7.74;100.00;95746.19;7396464;19;20384;-92
2023/12/30 11:53:09;;;;;;;2.23;2.00;;;;;;;8.39;100.00;95818.25;7395099;19;20424;-93
2023/12/30 11:55:50;;;;;;;2.00;1.90;;;;;;;7.98;100.00;95730.25;7397673;19;20452;-92
2023/12/30 11:58:31;;;;;;;3.50;2.50;;;;;;;8.44;100.00;95780.72;7396914;19;20414;-94
2023/12/30 12:01:12;;;;;;;2.87;2.60;;;;;;;8.30;100.00;95733.72;7397599;19;20384;-93
2023/12/30 12:03:54;;;;;;;4.40;2.27;;;;;;;8.73;100.00;95790.78;7396992;19;20375;-93
2023/12/30 12:06:35;;;;;;;6.50;3.20;;;;;;;9.05;100.00;95823.78;7396301;19;20396;-93
2023/12/30 12:09:17;;;;;;;2.97;1.40;;;;;;;9.41;100.00;95842.72;7394221;19;20866;-94
2023/12/30 12:11:58;;;;;;;2.60;1.60;;;;;;;8.67;100.00;95753.50;7395926;19;20906;-92
2023/12/30 12:14:47;;;;;;;2.07;1.10;;;;;;;8.58;100.00;95718.66;7397192;19;20380;-93
2023/12/30 12:17:29;;;;;;;2.07;1.20;;;;;;;8.89;100.00;95752.69;7396536;19;20909;-94
2023/12/30 12:20:13;;;;;;;2.13;1.20;;;;;;;8.62;100.00;95728.22;7395737;19;20686;-94
2023/12/30 12:22:54;;;;;;;4.50;1.60;;;;;;;8.77;100.00;95742.78;7393484;19;20440;-93
2023/12/30 12:25:35;;;;;;;2.80;1.50;;;;;;;9.28;100.00;95790.44;7398472;19;20448;-93
2023/12/30 12:28:19;;;;;;;2.60;1.07;;;;;;;9.78;100.00;95867.69;7401660;19;20385;-93
2023/12/30 12:31:06;;;;;;;5.23;2.87;;;;;;;9.02;100.00;95758.91;7403521;19;20368;-93
2023/12/30 12:33:47;;;;;;;3.57;1.80;;;;;;;8.77;100.00;95713.22;7402570;19;20376;-92
2023/12/30 12:36:28;;;;;;;2.03;1.83;;;;;;;8.85;100.00;95731.59;7403216;19;20377;-93
2023/12/30 12:39:09;;;;;;;6.40;3.07;;;;;;;8.91;100.00;95717.31;7403362;19;20396;-93
2023/12/30 12:41:50;;;;;;;6.80;2.33;;;;;;;9.12;100.00;95742.94;7402396;19;20388;-93